Time;durP1;ratioP1;P1;durP2;ratioP2;P2;SDS_P1;SDS_P2;PMS_P1;PMS_P2;Temp;Humidity;BMP_temperature;BMP_pressure;BME280_temperature;BME280_humidity;BME280_pressure;Samples;Min_cycle;Max_cycle;Signal;HPM_P1;HPM_P2
2023/04/21 00:01:12;;;;;;;11.18;7.60;;;;;;;;;;6245143;23;20018;-75
2023/04/21 00:03:38;;;;;;;12.27;7.82;;;;;;;;;;6272565;23;20011;-76
2023/04/21 00:06:08;;;;;;;12.85;8.10;;;;;;;;;;6271854;23;20013;-74
2023/04/21 00:08:39;;;;;;;11.70;7.63;;;;;;;;;;6273710;22;20300;-75
2023/04/21 00:11:05;;;;;;;12.63;8.05;;;;;;;;;;6245310;23;20063;-74
2023/04/21 00:13:30;;;;;;;11.07;7.57;;;;;;;;;;6274075;22;19996;-75
2023/04/21 00:15:55;;;;;;;11.85;7.95;;;;;;;;;;6245563;23;20019;-74
2023/04/21 00:18:21;;;;;;;11.20;8.07;;;;;;;;;;6246842;23;19994;-76
2023/04/21 00:20:47;;;;;;;14.30;8.45;;;;;;;;;;6273282;22;20003;-75
2023/04/21 00:23:12;;;;;;;11.40;7.50;;;;;;;;;;6273143;22;20008;-75
2023/04/21 00:25:37;;;;;;;11.32;7.18;;;;;;;;;;6246328;23;20046;-75
2023/04/21 00:28:03;;;;;;;11.07;6.93;;;;;;;;;;6246676;23;20016;-75
2023/04/21 00:30:28;;;;;;;12.98;7.55;;;;;;;;;;6246599;22;19996;-74
2023/04/21 00:32:54;;;;;;;11.68;7.78;;;;;;;;;;6272757;22;20004;-75
2023/04/21 00:35:20;;;;;;;10.82;7.35;;;;;;;;;;6272485;22;20001;-75
2023/04/21 00:37:45;;;;;;;10.88;6.95;;;;;;;;;;6246373;23;20051;-74
2023/04/21 00:40:11;;;;;;;11.48;6.85;;;;;;;;;;6246299;23;20022;-75
2023/04/21 00:42:36;;;;;;;11.00;7.25;;;;;;;;;;6273755;22;19999;-75
2023/04/21 00:45:03;;;;;;;11.10;7.40;;;;;;;;;;6273145;22;20051;-75
2023/04/21 00:47:28;;;;;;;12.35;7.32;;;;;;;;;;6245174;23;19988;-75
2023/04/21 00:49:54;;;;;;;10.60;7.22;;;;;;;;;;6271391;22;19999;-75
2023/04/21 00:52:20;;;;;;;10.35;6.45;;;;;;;;;;6272958;22;20008;-75
2023/04/21 00:54:45;;;;;;;10.30;6.70;;;;;;;;;;6272921;22;20016;-75
2023/04/21 00:57:10;;;;;;;11.95;7.38;;;;;;;;;;6245906;23;20016;-75
2023/04/21 00:59:36;;;;;;;12.80;7.60;;;;;;;;;;6272641;22;20000;-74
2023/04/21 01:02:02;;;;;;;9.82;6.78;;;;;;;;;;6246583;23;19992;-75
2023/04/21 01:04:28;;;;;;;11.05;7.22;;;;;;;;;;6248797;23;20051;-75
2023/04/21 01:06:53;;;;;;;13.18;7.90;;;;;;;;;;6272832;22;20011;-75
2023/04/21 01:09:19;;;;;;;12.48;7.75;;;;;;;;;;6273638;23;20016;-75
2023/04/21 01:12:05;;;;;;;11.88;7.82;;;;;;;;;;6247215;23;19992;-75
2023/04/21 01:14:31;;;;;;;13.15;8.23;;;;;;;;;;6274569;22;19988;-75
2023/04/21 01:16:56;;;;;;;11.93;7.63;;;;;;;;;;6274492;23;20016;-75
2023/04/21 01:19:23;;;;;;;12.43;7.93;;;;;;;;;;6273908;23;20004;-74
2023/04/21 01:21:50;;;;;;;13.13;8.18;;;;;;;;;;6247888;23;20011;-74
2023/04/21 01:24:15;;;;;;;12.85;8.35;;;;;;;;;;6273966;22;19992;-75
2023/04/21 01:26:41;;;;;;;12.02;7.68;;;;;;;;;;6272165;22;20014;-74
2023/04/21 01:29:06;;;;;;;12.32;8.07;;;;;;;;;;6272581;22;19996;-75
2023/04/21 01:31:31;;;;;;;13.82;8.73;;;;;;;;;;6247052;22;20047;-75
2023/04/21 01:33:57;;;;;;;13.18;9.00;;;;;;;;;;6274146;22;20009;-75
2023/04/21 01:36:22;;;;;;;15.82;8.90;;;;;;;;;;6246531;23;20055;-75
2023/04/21 01:38:47;;;;;;;17.33;10.07;;;;;;;;;;6272492;22;19989;-74
2023/04/21 01:41:13;;;;;;;14.80;9.38;;;;;;;;;;6272885;22;20022;-75
2023/04/21 01:43:38;;;;;;;14.20;10.05;;;;;;;;;;6222180;23;19998;-75
2023/04/21 01:46:04;;;;;;;14.52;9.02;;;;;;;;;;6272722;22;20039;-75
2023/04/21 01:48:30;;;;;;;14.93;9.63;;;;;;;;;;6271772;22;20004;-75
2023/04/21 01:50:55;;;;;;;14.57;9.40;;;;;;;;;;6273845;23;20008;-75
2023/04/21 01:53:20;;;;;;;15.60;9.52;;;;;;;;;;6272450;22;19999;-75
2023/04/21 01:55:46;;;;;;;15.75;9.45;;;;;;;;;;6273421;22;19996;-75
2023/04/21 01:58:11;;;;;;;15.98;9.15;;;;;;;;;;6270119;23;20015;-75
2023/04/21 02:00:37;;;;;;;16.48;9.52;;;;;;;;;;6270668;22;20000;-75
2023/04/21 02:03:02;;;;;;;15.15;10.02;;;;;;;;;;6271321;23;20030;-75
2023/04/21 02:05:27;;;;;;;17.08;10.30;;;;;;;;;;6272299;22;20015;-75
2023/04/21 02:07:53;;;;;;;14.90;9.27;;;;;;;;;;6270844;23;20008;-75
2023/04/21 02:10:18;;;;;;;16.20;10.18;;;;;;;;;;6270827;22;20014;-75
2023/04/21 02:12:43;;;;;;;16.95;10.63;;;;;;;;;;6271087;23;20011;-75
2023/04/21 02:15:09;;;;;;;16.55;10.02;;;;;;;;;;6272247;23;19984;-75
2023/04/21 02:17:35;;;;;;;18.05;10.65;;;;;;;;;;6272497;23;20000;-75
2023/04/21 02:20:00;;;;;;;17.23;10.77;;;;;;;;;;6272617;22;20184;-75
2023/04/21 02:22:26;;;;;;;14.60;9.48;;;;;;;;;;6273259;23;20008;-76
2023/04/21 02:24:51;;;;;;;20.48;11.38;;;;;;;;;;6247215;23;20438;-75
2023/04/21 02:27:17;;;;;;;17.35;10.13;;;;;;;;;;6272069;23;20044;-75
2023/04/21 02:29:42;;;;;;;16.70;11.10;;;;;;;;;;6272328;23;20004;-75
2023/04/21 02:32:08;;;;;;;17.25;10.27;;;;;;;;;;6245380;23;20035;-75
2023/04/21 02:34:33;;;;;;;20.55;11.23;;;;;;;;;;6273123;22;19996;-76
2023/04/21 02:36:59;;;;;;;17.95;11.43;;;;;;;;;;6274052;23;20019;-75
2023/04/21 02:39:25;;;;;;;19.73;11.23;;;;;;;;;;6272810;23;20000;-75
2023/04/21 02:41:51;;;;;;;17.05;11.48;;;;;;;;;;6273147;23;20023;-75
2023/04/21 02:44:16;;;;;;;17.55;10.50;;;;;;;;;;6245722;23;19992;-74
2023/04/21 02:46:42;;;;;;;17.45;10.95;;;;;;;;;;6244935;22;20007;-75
2023/04/21 02:49:08;;;;;;;16.75;10.98;;;;;;;;;;6273634;23;20019;-75
2023/04/21 02:51:33;;;;;;;18.58;11.35;;;;;;;;;;6247821;22;19996;-75
2023/04/21 02:53:59;;;;;;;18.70;11.25;;;;;;;;;;6274128;23;19992;-75
2023/04/21 02:56:24;;;;;;;17.05;10.85;;;;;;;;;;6272478;23;20009;-76
2023/04/21 02:58:50;;;;;;;18.02;11.50;;;;;;;;;;6247239;23;20016;-75
2023/04/21 03:01:15;;;;;;;17.45;11.18;;;;;;;;;;6272212;22;20023;-74
2023/04/21 03:03:40;;;;;;;18.20;10.98;;;;;;;;;;6273048;22;20004;-75
2023/04/21 03:06:06;;;;;;;20.35;12.45;;;;;;;;;;6272981;22;20023;-75
2023/04/21 03:08:31;;;;;;;19.52;11.90;;;;;;;;;;6273800;22;20059;-75
2023/04/21 03:10:57;;;;;;;19.30;11.80;;;;;;;;;;6273334;22;20031;-75
2023/04/21 03:13:23;;;;;;;18.73;11.60;;;;;;;;;;6273284;22;20015;-75
2023/04/21 03:15:48;;;;;;;19.35;12.35;;;;;;;;;;6273953;22;20009;-75
2023/04/21 03:18:13;;;;;;;21.38;12.20;;;;;;;;;;6246479;23;20004;-75
2023/04/21 03:20:39;;;;;;;20.10;11.68;;;;;;;;;;6247941;23;20004;-75
2023/04/21 03:23:04;;;;;;;19.25;11.55;;;;;;;;;;6247103;23;19992;-75
2023/04/21 03:25:30;;;;;;;19.90;12.65;;;;;;;;;;6272243;22;19993;-75
2023/04/21 03:27:55;;;;;;;20.77;11.70;;;;;;;;;;6247262;23;20038;-75
2023/04/21 03:30:21;;;;;;;19.80;12.63;;;;;;;;;;6247392;22;19992;-75
2023/04/21 03:32:47;;;;;;;19.65;11.45;;;;;;;;;;6246695;23;20039;-75
2023/04/21 03:35:12;;;;;;;19.05;12.02;;;;;;;;;;6273079;23;20060;-76
2023/04/21 03:37:38;;;;;;;19.95;12.32;;;;;;;;;;6272035;22;20020;-75
2023/04/21 03:40:07;;;;;;;20.17;11.98;;;;;;;;;;6247482;23;20051;-75
2023/04/21 03:42:33;;;;;;;21.25;12.73;;;;;;;;;;6245600;22;19996;-75
2023/04/21 03:45:03;;;;;;;20.40;12.93;;;;;;;;;;6246878;23;20011;-75
2023/04/21 03:47:28;;;;;;;22.27;12.85;;;;;;;;;;6272812;22;20055;-75
2023/04/21 03:49:53;;;;;;;20.33;12.63;;;;;;;;;;6272771;22;19992;-75
2023/04/21 03:52:19;;;;;;;19.70;12.10;;;;;;;;;;6245915;23;20051;-75
2023/04/21 03:54:44;;;;;;;21.13;13.20;;;;;;;;;;6247290;23;20003;-75
2023/04/21 03:57:09;;;;;;;19.55;11.80;;;;;;;;;;6272921;22;20007;-75
2023/04/21 03:59:35;;;;;;;22.33;13.05;;;;;;;;;;6246150;23;19992;-75
2023/04/21 04:02:00;;;;;;;19.30;12.57;;;;;;;;;;6246912;22;20064;-75
2023/04/21 04:04:25;;;;;;;21.55;12.20;;;;;;;;;;6271989;22;19988;-75
2023/04/21 04:06:51;;;;;;;20.70;12.63;;;;;;;;;;6273117;22;19988;-74
2023/04/21 04:09:16;;;;;;;19.65;12.35;;;;;;;;;;6247170;22;19996;-74
2023/04/21 04:11:41;;;;;;;21.42;13.15;;;;;;;;;;6246510;23;20004;-75
2023/04/21 04:14:07;;;;;;;23.33;13.80;;;;;;;;;;6247365;23;19996;-75
2023/04/21 04:16:33;;;;;;;21.52;13.63;;;;;;;;;;6272962;22;20012;-74
2023/04/21 04:18:59;;;;;;;22.10;12.95;;;;;;;;;;6272995;22;19996;-75
2023/04/21 04:21:24;;;;;;;21.83;13.13;;;;;;;;;;6271916;22;20063;-75
2023/04/21 04:23:53;;;;;;;18.70;12.18;;;;;;;;;;6272112;22;20011;-75
2023/04/21 04:26:18;;;;;;;20.33;12.65;;;;;;;;;;6247070;22;19988;-75
2023/04/21 04:28:44;;;;;;;24.17;14.82;;;;;;;;;;6246043;22;20048;-75
2023/04/21 04:31:09;;;;;;;20.63;13.52;;;;;;;;;;6270816;22;20012;-75
2023/04/21 04:33:35;;;;;;;21.23;13.73;;;;;;;;;;6246149;23;20000;-74
2023/04/21 04:36:00;;;;;;;20.00;13.35;;;;;;;;;;6273915;22;19997;-75
2023/04/21 04:38:27;;;;;;;22.25;13.38;;;;;;;;;;6247444;23;20018;-75
2023/04/21 04:40:56;;;;;;;21.98;12.77;;;;;;;;;;6272052;22;20385;-75
2023/04/21 04:43:22;;;;;;;21.25;13.50;;;;;;;;;;6273036;22;19988;-74
2023/04/21 04:45:47;;;;;;;21.73;13.48;;;;;;;;;;6246975;23;20018;-75
2023/04/21 04:48:13;;;;;;;20.65;13.20;;;;;;;;;;6273713;22;20012;-74
2023/04/21 04:50:38;;;;;;;21.13;12.55;;;;;;;;;;6271862;22;19993;-74
2023/04/21 04:53:04;;;;;;;20.88;13.55;;;;;;;;;;6220786;22;19992;-75
2023/04/21 04:55:29;;;;;;;21.70;12.80;;;;;;;;;;6273357;22;19996;-75
2023/04/21 04:57:54;;;;;;;20.85;12.68;;;;;;;;;;6271715;22;20004;-75
2023/04/21 05:00:20;;;;;;;22.65;13.25;;;;;;;;;;6245203;22;20012;-75
2023/04/21 05:02:45;;;;;;;20.30;13.10;;;;;;;;;;6246498;23;20038;-75
2023/04/21 05:05:11;;;;;;;20.60;12.80;;;;;;;;;;6272764;22;19996;-75
2023/04/21 05:07:36;;;;;;;23.02;14.68;;;;;;;;;;6245663;22;20000;-75
2023/04/21 05:10:03;;;;;;;24.13;14.80;;;;;;;;;;6247165;23;20004;-75
2023/04/21 05:12:30;;;;;;;22.83;14.40;;;;;;;;;;6273787;22;19988;-75
2023/04/21 05:14:55;;;;;;;24.65;15.23;;;;;;;;;;6273077;22;19992;-75
2023/04/21 05:17:21;;;;;;;24.60;15.20;;;;;;;;;;6273561;22;20012;-75
2023/04/21 05:19:46;;;;;;;25.25;14.13;;;;;;;;;;6273265;22;19992;-75
2023/04/21 05:22:11;;;;;;;24.65;15.65;;;;;;;;;;6247284;23;20045;-75
2023/04/21 05:24:37;;;;;;;22.45;14.80;;;;;;;;;;6272623;22;19996;-75
2023/04/21 05:27:02;;;;;;;25.50;15.18;;;;;;;;;;6246909;22;20055;-76
2023/04/21 05:29:28;;;;;;;26.02;16.10;;;;;;;;;;6246748;22;20003;-76
2023/04/21 05:31:53;;;;;;;24.55;14.98;;;;;;;;;;6247677;22;19992;-76
2023/04/21 05:34:18;;;;;;;25.77;15.40;;;;;;;;;;6274165;22;20020;-76
2023/04/21 05:36:44;;;;;;;25.15;15.75;;;;;;;;;;6245223;22;20004;-75
2023/04/21 05:39:09;;;;;;;25.42;15.55;;;;;;;;;;6272755;22;19992;-75
2023/04/21 05:41:34;;;;;;;25.70;16.90;;;;;;;;;;6273443;23;20000;-75
2023/04/21 05:44:00;;;;;;;25.30;15.60;;;;;;;;;;6246398;23;20004;-75
2023/04/21 05:46:25;;;;;;;28.42;17.45;;;;;;;;;;6274869;22;19992;-76
2023/04/21 05:48:50;;;;;;;25.90;15.63;;;;;;;;;;6273531;22;20011;-75
2023/04/21 05:51:16;;;;;;;25.27;15.98;;;;;;;;;;6245771;23;20047;-75
2023/04/21 05:53:42;;;;;;;27.50;16.05;;;;;;;;;;6275940;22;19992;-75
2023/04/21 05:56:09;;;;;;;24.67;15.82;;;;;;;;;;6274801;22;20039;-75
2023/04/21 05:58:35;;;;;;;29.30;17.38;;;;;;;;;;6248984;22;20027;-75
2023/04/21 06:01:01;;;;;;;27.98;16.70;;;;;;;;;;6273789;22;20026;-75
2023/04/21 06:03:26;;;;;;;26.70;16.35;;;;;;;;;;6248713;23;20011;-75
2023/04/21 06:05:53;;;;;;;28.30;17.55;;;;;;;;;;6248884;22;20044;-75
2023/04/21 06:08:19;;;;;;;28.33;17.08;;;;;;;;;;6274458;22;19996;-75
2023/04/21 06:10:44;;;;;;;25.60;15.95;;;;;;;;;;6274416;22;20052;-75
2023/04/21 06:13:09;;;;;;;25.00;15.48;;;;;;;;;;6275477;22;20019;-75
2023/04/21 06:15:35;;;;;;;25.42;15.55;;;;;;;;;;6275413;22;19996;-75
2023/04/21 06:18:00;;;;;;;25.45;16.23;;;;;;;;;;6248408;22;20063;-75
2023/04/21 06:20:26;;;;;;;26.08;16.73;;;;;;;;;;6246968;22;19988;-75
2023/04/21 06:22:51;;;;;;;27.20;16.25;;;;;;;;;;6247698;22;19992;-74
2023/04/21 06:25:16;;;;;;;29.70;17.27;;;;;;;;;;6274762;22;20046;-75
2023/04/21 06:27:44;;;;;;;25.67;16.63;;;;;;;;;;6273031;22;20008;-75
2023/04/21 06:30:10;;;;;;;26.60;16.20;;;;;;;;;;6274067;22;20044;-76
2023/04/21 06:32:35;;;;;;;27.00;16.55;;;;;;;;;;6274490;22;20022;-75
2023/04/21 06:35:00;;;;;;;26.05;16.73;;;;;;;;;;6248864;23;19996;-76
2023/04/21 06:37:26;;;;;;;25.13;15.65;;;;;;;;;;6272888;22;19996;-75
2023/04/21 06:39:51;;;;;;;25.23;15.65;;;;;;;;;;6219989;22;20027;-75
2023/04/21 06:42:16;;;;;;;26.13;16.35;;;;;;;;;;6274032;22;20023;-75
2023/04/21 06:44:42;;;;;;;24.65;14.95;;;;;;;;;;6247980;22;20020;-75
2023/04/21 06:47:07;;;;;;;24.73;15.90;;;;;;;;;;6249298;23;20015;-75
2023/04/21 06:49:33;;;;;;;24.20;14.82;;;;;;;;;;6273948;22;19980;-75
2023/04/21 06:51:58;;;;;;;27.50;16.67;;;;;;;;;;6274109;22;20019;-75
2023/04/21 06:54:23;;;;;;;24.85;15.70;;;;;;;;;;6247907;23;20023;-75
2023/04/21 06:56:50;;;;;;;25.92;16.63;;;;;;;;;;6274982;22;20016;-75
2023/04/21 06:59:15;;;;;;;26.92;16.10;;;;;;;;;;6248654;23;20008;-75
2023/04/21 07:01:41;;;;;;;26.80;17.35;;;;;;;;;;6272744;22;20024;-75
2023/04/21 07:04:06;;;;;;;29.35;17.25;;;;;;;;;;6273944;22;20214;-75
2023/04/21 07:06:31;;;;;;;28.48;16.02;;;;;;;;;;6272490;22;19988;-75
2023/04/21 07:08:57;;;;;;;30.80;16.63;;;;;;;;;;6272829;22;19988;-75
2023/04/21 07:11:22;;;;;;;29.55;17.60;;;;;;;;;;6274577;22;20012;-75
2023/04/21 07:13:48;;;;;;;26.95;16.40;;;;;;;;;;6247100;23;20044;-74
2023/04/21 07:16:13;;;;;;;27.33;16.88;;;;;;;;;;6272498;22;20016;-75
2023/04/21 07:18:39;;;;;;;27.40;16.92;;;;;;;;;;6273632;22;19992;-75
2023/04/21 07:21:05;;;;;;;26.48;16.10;;;;;;;;;;6272420;22;20014;-75
2023/04/21 07:23:30;;;;;;;27.52;17.20;;;;;;;;;;6274589;22;20016;-75
2023/04/21 07:25:55;;;;;;;26.02;16.17;;;;;;;;;;6271939;22;19996;-75
2023/04/21 07:28:21;;;;;;;26.20;16.52;;;;;;;;;;6271709;22;19988;-75
2023/04/21 07:30:46;;;;;;;25.90;16.33;;;;;;;;;;6271996;22;20026;-75
2023/04/21 07:33:12;;;;;;;25.92;15.77;;;;;;;;;;6244624;22;19995;-75
2023/04/21 07:35:38;;;;;;;27.05;16.42;;;;;;;;;;6273514;22;20012;-75
2023/04/21 07:38:03;;;;;;;26.40;16.25;;;;;;;;;;6243604;22;19995;-75
2023/04/21 07:40:29;;;;;;;23.83;15.70;;;;;;;;;;6272978;22;19992;-75
2023/04/21 07:42:54;;;;;;;24.33;16.02;;;;;;;;;;6271260;22;19989;-75
2023/04/21 07:45:20;;;;;;;25.63;16.38;;;;;;;;;;6245667;22;20008;-75
2023/04/21 07:47:45;;;;;;;25.65;16.83;;;;;;;;;;6246151;23;20015;-75
2023/04/21 07:50:10;;;;;;;25.65;16.83;;;;;;;;;;6246917;23;20000;-76
2023/04/21 07:52:36;;;;;;;24.52;16.48;;;;;;;;;;6272074;22;20012;-76
2023/04/21 07:55:02;;;;;;;25.75;16.30;;;;;;;;;;6271872;22;19988;-74
2023/04/21 07:57:27;;;;;;;26.55;16.00;;;;;;;;;;6274072;22;20019;-75
2023/04/21 07:59:52;;;;;;;23.90;15.60;;;;;;;;;;6246721;23;19992;-75
2023/04/21 08:02:18;;;;;;;27.00;15.90;;;;;;;;;;6245185;22;20030;-75
2023/04/21 08:04:43;;;;;;;26.02;16.15;;;;;;;;;;6273530;22;20059;-76
2023/04/21 08:07:08;;;;;;;24.73;16.27;;;;;;;;;;6272931;22;19998;-75
2023/04/21 08:09:34;;;;;;;24.75;16.98;;;;;;;;;;6272911;22;19996;-75
2023/04/21 08:12:01;;;;;;;27.25;16.92;;;;;;;;;;6272413;22;19988;-74
2023/04/21 08:14:27;;;;;;;25.88;16.70;;;;;;;;;;6273019;22;19997;-75
2023/04/21 08:16:52;;;;;;;24.90;16.60;;;;;;;;;;6272538;22;19988;-74
2023/04/21 08:19:18;;;;;;;24.83;16.77;;;;;;;;;;6273359;22;19999;-77
2023/04/21 08:21:43;;;;;;;26.70;16.40;;;;;;;;;;6271911;22;20056;-75
2023/04/21 08:24:08;;;;;;;23.67;16.83;;;;;;;;;;6271735;22;20021;-75
2023/04/21 08:26:34;;;;;;;25.75;16.33;;;;;;;;;;6272103;23;20000;-76
2023/04/21 08:29:00;;;;;;;25.35;16.30;;;;;;;;;;6246953;23;19996;-76
2023/04/21 08:31:25;;;;;;;25.70;16.63;;;;;;;;;;6272490;22;20000;-74
2023/04/21 08:33:51;;;;;;;23.38;14.65;;;;;;;;;;6273665;22;20042;-75
2023/04/21 08:36:16;;;;;;;22.92;15.02;;;;;;;;;;6245802;23;19985;-76
2023/04/21 08:38:43;;;;;;;23.80;14.88;;;;;;;;;;6271649;22;20008;-75
2023/04/21 08:41:09;;;;;;;22.85;14.27;;;;;;;;;;6228304;23;20119;-75
2023/04/21 08:43:34;;;;;;;21.48;14.68;;;;;;;;;;6216779;23;20035;-75
2023/04/21 08:46:04;;;;;;;23.65;15.65;;;;;;;;;;6214975;23;20019;-75
2023/04/21 08:48:34;;;;;;;22.05;14.18;;;;;;;;;;6242130;23;20012;-75
2023/04/21 08:51:00;;;;;;;23.38;14.02;;;;;;;;;;6216303;23;20014;-75
2023/04/21 08:53:26;;;;;;;23.80;14.52;;;;;;;;;;6243485;23;20030;-75
2023/04/21 08:55:54;;;;;;;23.95;14.35;;;;;;;;;;6244057;23;20438;-75
2023/04/21 08:58:21;;;;;;;21.27;13.90;;;;;;;;;;6237566;23;20323;-75
2023/04/21 09:00:47;;;;;;;23.08;15.10;;;;;;;;;;6214427;23;20316;-75
2023/04/21 09:03:12;;;;;;;22.27;14.02;;;;;;;;;;6241273;23;20018;-75
2023/04/21 09:05:38;;;;;;;24.13;15.20;;;;;;;;;;6243642;23;20000;-75
2023/04/21 09:08:11;;;;;;;22.33;14.82;;;;;;;;;;6215315;23;20008;-75
2023/04/21 09:10:51;;;;;;;22.27;14.95;;;;;;;;;;6244577;23;20015;-75
2023/04/21 09:13:17;;;;;;;21.63;14.07;;;;;;;;;;6244778;23;20390;-75
2023/04/21 09:15:45;;;;;;;23.08;15.45;;;;;;;;;;6243946;23;20004;-75
2023/04/21 09:18:23;;;;;;;22.55;14.98;;;;;;;;;;6215911;23;20034;-75
2023/04/21 09:20:51;;;;;;;23.48;14.77;;;;;;;;;;6245383;23;20330;-75
2023/04/21 09:23:16;;;;;;;23.88;14.65;;;;;;;;;;6245308;23;20000;-75
2023/04/21 09:25:43;;;;;;;23.05;14.95;;;;;;;;;;6246821;23;20011;-75
2023/04/21 09:28:11;;;;;;;22.95;14.95;;;;;;;;;;6219253;23;20008;-75
2023/04/21 09:30:37;;;;;;;21.70;14.15;;;;;;;;;;6246410;22;20047;-75
2023/04/21 09:33:03;;;;;;;22.27;15.32;;;;;;;;;;6246390;23;20365;-75
2023/04/21 09:35:32;;;;;;;22.48;14.50;;;;;;;;;;6244095;23;20004;-75
2023/04/21 09:37:57;;;;;;;21.08;13.57;;;;;;;;;;6219140;23;20007;-75
2023/04/21 09:40:22;;;;;;;21.05;14.00;;;;;;;;;;6246317;23;20004;-75
2023/04/21 09:42:49;;;;;;;20.63;14.13;;;;;;;;;;6246316;23;20053;-76
2023/04/21 09:45:15;;;;;;;19.90;13.80;;;;;;;;;;6245589;23;20426;-75
2023/04/21 09:47:41;;;;;;;20.75;14.10;;;;;;;;;;6219425;23;20004;-75
2023/04/21 09:50:10;;;;;;;21.58;14.80;;;;;;;;;;6216526;23;20023;-76
2023/04/21 09:52:37;;;;;;;19.42;14.30;;;;;;;;;;6245760;23;20008;-75
2023/04/21 09:55:06;;;;;;;20.40;14.13;;;;;;;;;;6244776;23;19996;-75
2023/04/21 09:57:34;;;;;;;18.70;13.32;;;;;;;;;;6246089;23;20452;-75
2023/04/21 10:00:10;;;;;;;19.27;13.05;;;;;;;;;;6242649;23;20010;-75
2023/04/21 10:03:04;;;;;;;19.70;13.93;;;;;;;;;;6217276;23;20008;-76
2023/04/21 10:05:29;;;;;;;20.65;14.05;;;;;;;;;;6240564;23;20008;-75
2023/04/21 10:07:56;;;;;;;19.38;13.60;;;;;;;;;;6246213;23;20057;-75
2023/04/21 10:10:27;;;;;;;18.35;13.48;;;;;;;;;;6219213;23;20012;-75
2023/04/21 10:12:53;;;;;;;22.45;15.48;;;;;;;;;;6246145;23;20004;-75
2023/04/21 10:15:38;;;;;;;22.75;16.02;;;;;;;;;;6239564;23;20115;-76
2023/04/21 10:18:21;;;;;;;22.23;16.27;;;;;;;;;;6244921;23;20011;-75
2023/04/21 10:20:49;;;;;;;;;;;;;;;;;;6219121;23;20102;-75
2023/04/21 10:23:34;;;;;;;22.67;16.00;;;;;;;;;;6245307;23;20227;-76
2023/04/21 10:26:09;;;;;;;22.77;16.08;;;;;;;;;;6246308;23;20011;-75
2023/04/21 10:28:53;;;;;;;25.58;17.77;;;;;;;;;;6244507;23;20315;-76
2023/04/21 10:31:32;;;;;;;24.17;17.23;;;;;;;;;;6244736;22;20062;-75
2023/04/21 10:34:15;;;;;;;24.33;17.40;;;;;;;;;;6217660;23;20102;-75
2023/04/21 10:36:43;;;;;;;24.10;17.52;;;;;;;;;;6216643;23;20212;-75
2023/04/21 10:39:14;;;;;;;23.70;16.45;;;;;;;;;;6243226;23;20000;-75
2023/04/21 10:41:42;;;;;;;24.17;17.20;;;;;;;;;;6245807;23;20027;-75
2023/04/21 10:44:12;;;;;;;24.63;16.75;;;;;;;;;;6216773;23;20062;-76
2023/04/21 10:46:45;;;;;;;23.08;16.08;;;;;;;;;;6242764;23;20069;-75
2023/04/21 10:49:20;;;;;;;22.90;16.55;;;;;;;;;;6245017;23;20339;-75
2023/04/21 10:51:58;;;;;;;24.48;16.00;;;;;;;;;;6215189;23;20426;-76
2023/04/21 10:54:30;;;;;;;22.92;15.48;;;;;;;;;;6241893;23;20477;-76
2023/04/21 10:56:57;;;;;;;23.63;16.55;;;;;;;;;;6218073;23;20446;-76
2023/04/21 10:59:23;;;;;;;24.20;17.42;;;;;;;;;;6242154;23;20004;-76
2023/04/21 11:01:49;;;;;;;24.25;16.85;;;;;;;;;;6218031;23;20007;-75
2023/04/21 11:04:18;;;;;;;23.95;16.85;;;;;;;;;;6216325;23;20008;-75
2023/04/21 11:07:35;;;;;;;23.92;16.90;;;;;;;;;;6244068;23;20004;-76
2023/04/21 11:10:06;;;;;;;20.77;15.55;;;;;;;;;;6178896;23;20004;-73
2023/04/21 11:12:37;;;;;;;22.25;15.80;;;;;;;;;;6220135;23;20007;-73
2023/04/21 11:15:08;;;;;;;19.75;15.27;;;;;;;;;;6241706;23;20873;-73
2023/04/21 11:17:34;;;;;;;22.33;15.95;;;;;;;;;;6241073;23;20042;-75
2023/04/21 11:20:01;;;;;;;19.65;15.55;;;;;;;;;;6245664;23;20024;-72
2023/04/21 11:22:26;;;;;;;18.58;13.63;;;;;;;;;;6219910;23;20031;-75
2023/04/21 11:24:56;;;;;;;18.48;13.82;;;;;;;;;;6217109;23;20001;-74
2023/04/21 11:27:22;;;;;;;20.02;15.48;;;;;;;;;;6220175;23;20008;-73
2023/04/21 11:29:48;;;;;;;19.30;14.20;;;;;;;;;;6219828;22;20008;-73
2023/04/21 11:32:15;;;;;;;17.83;13.60;;;;;;;;;;6220224;23;20008;-74
2023/04/21 11:34:40;;;;;;;19.17;13.70;;;;;;;;;;6218597;23;20023;-73
2023/04/21 11:37:15;;;;;;;17.23;12.75;;;;;;;;;;6245820;23;20422;-72
2023/04/21 11:39:42;;;;;;;16.17;12.80;;;;;;;;;;6246387;23;20015;-73
2023/04/21 11:42:08;;;;;;;15.82;12.27;;;;;;;;;;6246069;23;20334;-74
2023/04/21 11:44:41;;;;;;;18.63;13.52;;;;;;;;;;6219902;23;20019;-72
2023/04/21 11:47:18;;;;;;;18.50;13.77;;;;;;;;;;6246760;23;20054;-73
2023/04/21 11:49:45;;;;;;;18.63;13.00;;;;;;;;;;6221226;23;20062;-73
2023/04/21 11:52:11;;;;;;;17.83;12.95;;;;;;;;;;6246862;23;20004;-73
2023/04/21 11:54:37;;;;;;;18.15;13.90;;;;;;;;;;6219542;23;20278;-73
2023/04/21 11:57:05;;;;;;;19.42;13.73;;;;;;;;;;6247337;23;20478;-73
2023/04/21 11:59:31;;;;;;;18.60;13.70;;;;;;;;;;6246229;23;20004;-72
2023/04/21 12:01:56;;;;;;;17.95;13.23;;;;;;;;;;6220618;23;20089;-74
2023/04/21 12:04:24;;;;;;;19.55;13.82;;;;;;;;;;6246899;23;20000;-73
2023/04/21 12:07:01;;;;;;;19.25;13.98;;;;;;;;;;6218931;23;20086;-73
2023/04/21 12:09:28;;;;;;;18.13;13.18;;;;;;;;;;6246395;23;20038;-74
2023/04/21 12:11:56;;;;;;;19.38;13.95;;;;;;;;;;6246431;23;20008;-74
2023/04/21 12:14:22;;;;;;;19.58;13.45;;;;;;;;;;6241843;23;20327;-76
2023/04/21 12:16:56;;;;;;;18.45;13.32;;;;;;;;;;6218830;23;20008;-72
2023/04/21 12:19:22;;;;;;;18.67;13.55;;;;;;;;;;6247234;23;20014;-73
2023/04/21 12:21:53;;;;;;;16.85;12.93;;;;;;;;;;6245757;23;20012;-73
2023/04/21 12:24:18;;;;;;;19.13;13.88;;;;;;;;;;6244812;23;20000;-73
2023/04/21 12:26:44;;;;;;;19.77;13.95;;;;;;;;;;6247008;23;20058;-73
2023/04/21 12:29:09;;;;;;;18.35;13.73;;;;;;;;;;6219661;23;20011;-72
2023/04/21 12:31:34;;;;;;;20.33;13.30;;;;;;;;;;6219969;22;20047;-76
2023/04/21 12:34:00;;;;;;;19.00;13.50;;;;;;;;;;6218842;23;20008;-73
2023/04/21 12:36:26;;;;;;;18.50;13.65;;;;;;;;;;6218386;23;20015;-73
2023/04/21 12:38:52;;;;;;;21.50;14.50;;;;;;;;;;6194645;23;20106;-74
2023/04/21 12:41:17;;;;;;;23.88;15.32;;;;;;;;;;6217803;23;20015;-73
2023/04/21 12:43:43;;;;;;;21.52;16.17;;;;;;;;;;6244335;23;20004;-73
2023/04/21 12:46:08;;;;;;;20.88;14.82;;;;;;;;;;6217122;23;20040;-74
2023/04/21 12:48:33;;;;;;;23.05;15.63;;;;;;;;;;6244298;23;20015;-73
2023/04/21 12:50:59;;;;;;;21.50;15.70;;;;;;;;;;6218617;23;20083;-73
2023/04/21 12:53:24;;;;;;;19.98;15.05;;;;;;;;;;6246282;23;20004;-74
2023/04/21 12:55:49;;;;;;;19.88;16.00;;;;;;;;;;6223645;23;20012;-74
2023/04/21 12:58:15;;;;;;;20.45;15.30;;;;;;;;;;6249444;23;20011;-73
2023/04/21 13:00:42;;;;;;;18.35;14.77;;;;;;;;;;6249039;23;20004;-73
2023/04/21 13:03:07;;;;;;;20.52;14.73;;;;;;;;;;6226398;23;20024;-72
2023/04/21 13:05:32;;;;;;;21.77;15.93;;;;;;;;;;6249912;23;20438;-73
2023/04/21 13:07:58;;;;;;;21.13;15.90;;;;;;;;;;6220083;23;20031;-73
2023/04/21 13:10:24;;;;;;;23.10;15.35;;;;;;;;;;6220983;23;20008;-73
2023/04/21 13:12:49;;;;;;;22.52;16.55;;;;;;;;;;6255770;22;20023;-75
2023/04/21 13:15:15;;;;;;;23.05;15.95;;;;;;;;;;6274467;22;20008;-76
2023/04/21 13:17:40;;;;;;;25.17;17.23;;;;;;;;;;6247659;23;19992;-76
2023/04/21 13:20:06;;;;;;;23.35;16.05;;;;;;;;;;6246293;22;20016;-76
2023/04/21 13:22:32;;;;;;;25.70;18.05;;;;;;;;;;6247475;22;20004;-75
2023/04/21 13:24:57;;;;;;;22.73;17.17;;;;;;;;;;6222901;22;19996;-75
2023/04/21 13:27:22;;;;;;;27.55;17.92;;;;;;;;;;6274418;22;19992;-76
2023/04/21 13:29:48;;;;;;;23.02;17.02;;;;;;;;;;6248014;22;20015;-75
2023/04/21 13:32:14;;;;;;;22.60;16.23;;;;;;;;;;6274901;22;19995;-76
2023/04/21 13:34:39;;;;;;;25.48;17.08;;;;;;;;;;6274656;22;20004;-75
2023/04/21 13:37:09;;;;;;;23.27;17.10;;;;;;;;;;6273643;22;19988;-75
2023/04/21 13:39:35;;;;;;;25.17;17.70;;;;;;;;;;6274534;22;19988;-75
2023/04/21 13:42:01;;;;;;;23.20;15.98;;;;;;;;;;6272062;22;19992;-75
2023/04/21 13:44:26;;;;;;;27.02;17.77;;;;;;;;;;6272509;22;20000;-75
2023/04/21 13:46:52;;;;;;;23.95;17.35;;;;;;;;;;6274416;22;19988;-75
2023/04/21 13:49:18;;;;;;;24.65;16.55;;;;;;;;;;6249103;22;19999;-76
2023/04/21 13:51:43;;;;;;;23.30;16.67;;;;;;;;;;6274614;22;19989;-76
2023/04/21 13:54:09;;;;;;;21.23;16.05;;;;;;;;;;6248063;22;20360;-76
2023/04/21 13:56:35;;;;;;;24.92;16.67;;;;;;;;;;6274415;22;19988;-75
2023/04/21 15:32:15;;;;;;;19.23;13.38;;;;;;;;;;6226501;22;20488;-76
2023/04/21 15:34:41;;;;;;;19.02;13.57;;;;;;;;;;6224615;23;20004;-76
2023/04/21 15:37:06;;;;;;;18.52;12.52;;;;;;;;;;6230052;23;20023;-76
2023/04/21 15:39:31;;;;;;;15.63;12.02;;;;;;;;;;6205465;23;20018;-76
2023/04/21 15:41:57;;;;;;;16.25;11.90;;;;;;;;;;6205191;23;20008;-76
2023/04/21 15:44:23;;;;;;;14.93;11.65;;;;;;;;;;6204835;23;20097;-76
2023/04/21 15:46:49;;;;;;;16.70;11.85;;;;;;;;;;6205220;23;20012;-76
2023/04/21 15:49:14;;;;;;;15.25;11.25;;;;;;;;;;6233323;23;20011;-76